Time;durP1;ratioP1;P1;durP2;ratioP2;P2;SDS_P1;SDS_P2;PMS_P1;PMS_P2;Temp;Humidity;BMP_temperature;BMP_pressure;BME280_temperature;BME280_humidity;BME280_pressure;Samples;Min_cycle;Max_cycle;Signal;HPM_P1;HPM_P2
2021/09/04 00:01:57;;;;;;;10.70;9.60;;;;;;;15.31;94.85;155293.78;5035607;28;20553;-85
2021/09/04 00:04:42;;;;;;;10.63;9.63;;;;;;;15.33;93.33;155298.97;5033521;28;20617;-85
2021/09/04 00:07:28;;;;;;;9.93;8.57;;;;;;;15.36;92.25;155305.47;5034283;28;20425;-85
2021/09/04 00:10:16;;;;;;;9.93;8.93;;;;;;;15.34;92.22;155301.59;5035107;28;20415;-85
2021/09/04 00:13:03;;;;;;;11.43;9.97;;;;;;;15.33;91.67;155297.72;5035618;28;20955;-85
2021/09/04 00:15:48;;;;;;;11.83;9.20;;;;;;;15.32;91.65;155296.41;5034738;28;20423;-85
2021/09/04 00:18:35;;;;;;;12.43;11.03;;;;;;;15.34;91.92;155301.59;5035319;28;20437;-85
2021/09/04 00:21:21;;;;;;;9.93;8.90;;;;;;;15.36;91.07;155306.78;5035290;28;20446;-85
2021/09/04 00:24:06;;;;;;;10.30;9.20;;;;;;;15.34;91.83;155301.59;5034840;28;20481;-85
2021/09/04 00:26:52;;;;;;;10.20;9.10;;;;;;;15.35;91.56;155304.22;5034873;28;20913;-85
2021/09/04 00:29:38;;;;;;;10.40;9.30;;;;;;;15.34;91.90;155300.28;5035384;28;20493;-85
2021/09/04 00:32:24;;;;;;;9.33;8.43;;;;;;;15.29;92.59;155288.63;5034797;28;20424;-84
2021/09/04 00:35:10;;;;;;;10.93;9.10;;;;;;;15.27;91.91;155283.44;5034779;28;21084;-85
2021/09/04 00:37:55;;;;;;;10.50;9.50;;;;;;;15.20;92.96;155266.50;5033614;28;20608;-85
2021/09/04 00:40:40;;;;;;;11.77;9.40;;;;;;;15.12;95.39;155245.72;5034137;28;20781;-85
2021/09/04 00:43:26;;;;;;;11.13;9.40;;;;;;;15.01;95.39;155215.88;5034740;28;20500;-85
2021/09/04 00:46:13;;;;;;;9.67;8.40;;;;;;;14.93;95.00;155195.06;5034444;28;20438;-85
2021/09/04 00:48:58;;;;;;;10.50;9.40;;;;;;;14.86;95.62;155176.84;5034264;28;20532;-85
2021/09/04 00:51:43;;;;;;;10.10;9.10;;;;;;;14.79;96.81;155158.69;5033951;28;20421;-85
2021/09/04 00:54:29;;;;;;;10.37;9.37;;;;;;;14.79;96.75;155158.69;5034620;28;21064;-85
2021/09/04 00:57:15;;;;;;;11.43;10.30;;;;;;;14.83;96.14;155170.34;5034493;28;20484;-84
2021/09/04 01:00:00;;;;;;;10.97;9.97;;;;;;;14.82;96.47;155167.78;5034358;28;20508;-84
2021/09/04 01:02:47;;;;;;;11.20;9.90;;;;;;;14.77;95.90;155154.81;5034155;28;20440;-85
2021/09/04 01:05:33;;;;;;;10.30;9.30;;;;;;;14.77;95.43;155154.81;5034349;28;20891;-85
2021/09/04 01:08:21;;;;;;;11.07;9.93;;;;;;;14.81;96.08;155163.88;5034431;28;20462;-85
2021/09/04 01:11:06;;;;;;;10.57;9.57;;;;;;;14.79;96.46;155158.69;5034316;28;20421;-84
2021/09/04 01:13:52;;;;;;;10.70;9.50;;;;;;;14.81;95.92;155163.88;5034313;28;20580;-84
2021/09/04 01:16:39;;;;;;;11.27;10.17;;;;;;;14.81;95.00;155163.88;5032882;28;20455;-84
2021/09/04 01:19:26;;;;;;;11.67;10.50;;;;;;;14.76;96.83;155150.88;5034089;28;20940;-84
2021/09/04 01:22:11;;;;;;;10.23;9.23;;;;;;;14.73;95.83;155143.09;5034422;28;20487;-84
2021/09/04 01:24:58;;;;;;;11.33;9.50;;;;;;;14.65;96.10;155123.59;5034079;28;20788;-84
2021/09/04 01:27:45;;;;;;;11.67;10.47;;;;;;;14.57;97.43;155102.81;5033827;28;20457;-84
2021/09/04 01:30:30;;;;;;;11.17;9.50;;;;;;;14.50;97.58;155085.97;5034636;28;20475;-84
2021/09/04 01:33:16;;;;;;;10.23;9.17;;;;;;;14.45;97.53;155072.97;5034316;28;20440;-84
2021/09/04 01:36:01;;;;;;;11.57;10.37;;;;;;;14.43;97.68;155067.75;5034239;28;20926;-84
2021/09/04 01:38:47;;;;;;;11.67;10.37;;;;;;;14.41;97.74;155062.56;5034228;28;20444;-84
2021/09/04 01:41:32;;;;;;;11.10;10.00;;;;;;;14.38;97.93;155053.47;5034024;28;20468;-84
2021/09/04 01:44:19;;;;;;;10.17;9.07;;;;;;;14.32;98.58;155037.91;5033417;28;20485;-84
2021/09/04 01:47:04;;;;;;;10.83;9.10;;;;;;;14.29;99.80;155030.06;5033607;28;20943;-84
2021/09/04 01:49:49;;;;;;;12.00;10.20;;;;;;;14.23;98.95;155015.78;5034129;28;20498;-84
2021/09/04 01:52:35;;;;;;;11.17;10.07;;;;;;;14.20;99.77;155007.97;5018705;28;20780;-84
2021/09/04 01:55:21;;;;;;;12.20;10.83;;;;;;;14.17;99.14;155000.19;5034072;28;20412;-84
2021/09/04 01:58:06;;;;;;;11.13;9.67;;;;;;;14.13;99.70;154989.81;5033597;28;20935;-84
2021/09/04 02:00:53;;;;;;;13.00;10.20;;;;;;;14.10;99.61;154982.03;5034080;28;20459;-84
2021/09/04 02:03:39;;;;;;;11.70;9.90;;;;;;;14.07;99.10;154974.22;5032829;28;20599;-84
2021/09/04 02:06:25;;;;;;;11.30;10.10;;;;;;;14.05;99.19;154969.03;5033605;28;20419;-84
2021/09/04 02:09:10;;;;;;;11.00;9.90;;;;;;;14.01;99.21;154959.94;5033870;28;20922;-84
2021/09/04 02:11:56;;;;;;;10.17;9.10;;;;;;;13.98;98.76;154950.81;5033530;28;20444;-84
2021/09/04 02:14:41;;;;;;;9.90;8.90;;;;;;;13.96;100.00;154945.66;5033998;28;20787;-83
2021/09/04 02:17:28;;;;;;;12.00;10.70;;;;;;;13.88;99.96;154924.88;5034093;28;20510;-84
2021/09/04 02:20:13;;;;;;;10.83;8.50;;;;;;;13.89;100.00;154928.81;5033955;28;20910;-83
2021/09/04 02:22:59;;;;;;;10.77;9.67;;;;;;;13.88;99.98;154924.88;5033039;28;20538;-84
2021/09/04 02:25:36;;;;;;;11.67;10.57;;;;;;;13.86;100.00;154919.69;5015490;28;20431;-84
2021/09/04 02:28:22;;;;;;;12.53;9.90;;;;;;;13.81;99.87;154906.72;5033706;28;20968;-84
2021/09/04 02:31:09;;;;;;;11.37;10.20;;;;;;;13.82;99.69;154909.34;5034923;28;20415;-83
2021/09/04 02:33:56;;;;;;;11.97;10.77;;;;;;;13.81;99.83;154906.72;5037198;28;20443;-83
2021/09/04 02:36:42;;;;;;;14.90;10.83;;;;;;;13.80;99.76;154904.09;5036691;28;20502;-83
2021/09/04 02:39:28;;;;;;;15.00;10.43;;;;;;;13.81;99.82;154908.03;5037159;28;20442;-83
2021/09/04 02:42:14;;;;;;;12.27;10.83;;;;;;;13.80;99.96;154905.41;5036857;28;20431;-83
2021/09/04 02:45:00;;;;;;;13.83;12.33;;;;;;;13.78;99.80;154898.91;5036545;28;20471;-83
2021/09/04 02:47:46;;;;;;;22.63;11.53;;;;;;;13.75;100.00;154891.13;5036964;28;20435;-84
2021/09/04 02:50:34;;;;;;;12.70;11.23;;;;;;;13.75;99.77;154891.13;5036518;28;20478;-83
2021/09/04 02:53:19;;;;;;;13.47;12.07;;;;;;;13.72;100.00;154884.63;5036314;28;20439;-83
2021/09/04 02:56:05;;;;;;;13.10;11.40;;;;;;;13.70;100.00;154878.16;5036729;28;20498;-83
2021/09/04 02:58:51;;;;;;;12.43;11.13;;;;;;;13.69;100.00;154876.84;5036396;28;20462;-83
2021/09/04 03:01:37;;;;;;;12.80;11.07;;;;;;;13.68;100.00;154872.97;5035428;28;20506;-83
2021/09/04 03:04:22;;;;;;;12.30;11.03;;;;;;;13.65;100.00;154865.19;5021277;28;20486;-83
2021/09/04 03:07:09;;;;;;;11.53;10.43;;;;;;;13.58;100.00;154847.03;5036645;28;20423;-84
2021/09/04 03:09:55;;;;;;;12.83;11.63;;;;;;;13.61;100.00;154854.81;5036525;28;20423;-83
2021/09/04 03:12:41;;;;;;;12.73;11.13;;;;;;;13.55;100.00;154839.22;5021110;28;20764;-83
2021/09/04 03:15:26;;;;;;;13.53;11.90;;;;;;;13.52;100.00;154831.44;5036432;28;20428;-83
2021/09/04 03:18:12;;;;;;;13.10;11.70;;;;;;;13.48;100.00;154821.03;5036304;28;20438;-83
2021/09/04 03:20:58;;;;;;;16.40;10.93;;;;;;;13.46;100.00;154815.84;5036610;28;20543;-83
2021/09/04 03:23:45;;;;;;;15.23;12.90;;;;;;;13.43;100.00;154810.66;5036056;28;20475;-83
2021/09/04 03:26:30;;;;;;;13.53;10.57;;;;;;;13.39;100.00;154800.31;5036458;28;20463;-83
2021/09/04 03:29:18;;;;;;;12.53;10.90;;;;;;;13.40;100.00;154801.56;5036307;28;20910;-83
2021/09/04 03:32:04;;;;;;;12.27;10.97;;;;;;;13.37;100.00;154793.78;5035984;28;20420;-83
2021/09/04 03:34:50;;;;;;;13.77;11.80;;;;;;;13.36;100.00;154791.22;5035072;28;20574;-83
2021/09/04 03:37:36;;;;;;;13.80;11.93;;;;;;;13.36;100.00;154792.53;5036030;28;20424;-83
2021/09/04 03:40:26;;;;;;;13.23;11.53;;;;;;;13.36;100.00;154792.53;5036109;28;20412;-82
2021/09/04 03:43:11;;;;;;;15.30;12.57;;;;;;;13.35;100.00;154789.91;5034583;28;20886;-82
2021/09/04 03:45:57;;;;;;;13.70;12.23;;;;;;;13.35;100.00;154789.91;5035512;28;20462;-83
2021/09/04 03:48:43;;;;;;;13.30;11.40;;;;;;;13.36;100.00;154791.22;5035335;28;20539;-83
2021/09/04 03:51:30;;;;;;;15.00;12.63;;;;;;;13.34;100.00;154787.28;5035173;28;20430;-82
2021/09/04 03:54:15;;;;;;;15.47;11.40;;;;;;;13.35;100.00;154788.59;5035810;28;20771;-82
2021/09/04 03:57:03;;;;;;;17.07;11.60;;;;;;;13.29;100.00;154774.31;5035173;28;20420;-82
2021/09/04 03:59:49;;;;;;;13.83;12.43;;;;;;;13.24;100.00;154760.03;5035605;28;20467;-82
2021/09/04 04:02:35;;;;;;;13.67;12.23;;;;;;;13.21;100.00;154753.56;5035483;28;20424;-83
2021/09/04 04:05:20;;;;;;;13.07;11.50;;;;;;;13.19;100.00;154748.38;5035390;28;20530;-82
2021/09/04 04:08:06;;;;;;;14.67;12.00;;;;;;;13.16;100.00;154739.28;5035487;28;20894;-82
2021/09/04 04:10:52;;;;;;;14.30;12.20;;;;;;;13.15;100.00;154736.72;5035349;28;20462;-82
2021/09/04 04:13:39;;;;;;;13.07;11.67;;;;;;;13.15;100.00;154738.03;5034164;28;20561;-82
2021/09/04 04:16:26;;;;;;;13.73;12.20;;;;;;;13.13;100.00;154732.78;5035168;28;20881;-82
2021/09/04 04:19:11;;;;;;;13.30;11.90;;;;;;;13.15;100.00;154738.03;5034945;28;20435;-82
2021/09/04 04:21:57;;;;;;;13.23;11.53;;;;;;;13.15;100.00;154738.03;5035017;28;20531;-82
2021/09/04 04:24:43;;;;;;;14.57;12.77;;;;;;;13.14;100.00;154735.41;5035118;28;20478;-82
2021/09/04 04:27:29;;;;;;;20.53;14.87;;;;;;;13.14;100.00;154735.41;5034661;28;20431;-82
2021/09/04 04:30:18;;;;;;;13.53;11.80;;;;;;;13.14;100.00;154735.41;5034840;28;20887;-83
2021/09/04 04:33:03;;;;;;;14.53;13.03;;;;;;;13.10;100.00;154725.06;5034737;28;20555;-82
2021/09/04 04:35:49;;;;;;;14.90;12.70;;;;;;;13.06;100.00;154714.59;5034484;28;20416;-82
2021/09/04 04:38:35;;;;;;;15.07;12.97;;;;;;;13.04;100.00;154709.44;5033596;28;20547;-82
2021/09/04 04:41:21;;;;;;;15.50;12.70;;;;;;;13.03;100.00;154705.50;5034645;28;20415;-82
2021/09/04 04:44:07;;;;;;;15.07;11.90;;;;;;;13.00;100.00;154699.03;5034523;28;20471;-82
2021/09/04 04:46:57;;;;;;;15.47;13.13;;;;;;;12.98;100.00;154693.84;5034107;28;20435;-82
2021/09/04 04:49:46;;;;;;;13.90;12.50;;;;;;;12.96;100.00;154687.34;5033163;28;20594;-82
2021/09/04 04:52:32;;;;;;;16.33;12.80;;;;;;;12.97;100.00;154691.28;5032097;28;20541;-82
2021/09/04 04:55:18;;;;;;;12.80;10.77;;;;;;;12.97;100.00;154691.28;5032963;28;20893;-82
2021/09/04 04:58:03;;;;;;;16.17;12.60;;;;;;;12.94;100.00;154683.50;5033550;28;20857;-81
2021/09/04 05:00:51;;;;;;;12.67;11.27;;;;;;;12.94;100.00;154682.19;5034252;28;20419;-82
2021/09/04 05:03:37;;;;;;;15.43;11.97;;;;;;;12.93;100.00;154679.56;5033797;28;20525;-82
2021/09/04 05:06:23;;;;;;;14.67;12.53;;;;;;;12.93;100.00;154680.88;5034234;28;20414;-82
2021/09/04 05:09:09;;;;;;;17.17;12.30;;;;;;;12.93;100.00;154680.88;5034013;28;20517;-81
2021/09/04 05:11:54;;;;;;;16.57;12.30;;;;;;;12.90;100.00;154673.09;5034105;28;20470;-81
2021/09/04 05:14:40;;;;;;;16.67;12.40;;;;;;;12.92;100.00;154677.00;5033459;28;20445;-81
2021/09/04 05:17:26;;;;;;;13.67;12.27;;;;;;;12.95;100.00;154684.75;5033472;28;20427;-81
2021/09/04 05:20:14;;;;;;;14.43;12.07;;;;;;;12.99;100.00;154696.47;5018417;28;20519;-81
2021/09/04 05:23:00;;;;;;;14.47;13.00;;;;;;;13.05;100.00;154712.00;5033690;28;20489;-81
2021/09/04 05:25:46;;;;;;;13.27;11.30;;;;;;;13.04;100.00;154708.13;5033790;28;20467;-82
2021/09/04 05:28:32;;;;;;;14.70;11.40;;;;;;;13.09;100.00;154722.44;5033869;28;20579;-82
2021/09/04 05:31:31;;;;;;;11.97;10.77;;;;;;;13.09;100.00;154722.44;4955534;28;20498;-81
2021/09/04 05:34:16;;;;;;;12.67;10.47;;;;;;;13.15;100.00;154738.03;4953317;29;20447;-81
2021/09/04 05:37:03;;;;;;;13.27;11.87;;;;;;;13.16;100.00;154739.28;4953518;29;20427;-81
2021/09/04 05:39:49;;;;;;;14.00;11.70;;;;;;;13.19;100.00;154747.06;4952967;29;21070;-81
2021/09/04 05:42:34;;;;;;;14.70;12.33;;;;;;;13.23;100.00;154758.78;4953136;29;20499;-81
2021/09/04 05:45:20;;;;;;;15.80;12.40;;;;;;;13.31;100.00;154779.56;4953058;29;20574;-81
2021/09/04 05:48:06;;;;;;;15.27;11.53;;;;;;;13.43;100.00;154810.66;4953002;29;20450;-81
2021/09/04 05:50:51;;;;;;;12.83;11.53;;;;;;;13.68;100.00;154874.28;4953271;29;20937;-81
2021/09/04 05:53:39;;;;;;;11.80;10.60;;;;;;;14.07;100.00;154974.22;4952847;29;20571;-81
2021/09/04 05:56:24;;;;;;;13.77;10.90;;;;;;;14.29;100.00;155030.06;4953129;29;20438;-81
2021/09/04 05:59:10;;;;;;;13.03;11.10;;;;;;;14.47;100.00;155078.16;4952679;29;20467;-82
2021/09/04 06:01:55;;;;;;;13.70;11.53;;;;;;;14.66;100.00;155126.22;4952753;29;20444;-82
2021/09/04 06:04:41;;;;;;;12.50;11.30;;;;;;;14.90;100.00;155188.56;4953074;28;20466;-82
2021/09/04 06:07:26;;;;;;;15.53;12.57;;;;;;;15.13;100.00;155248.34;4996177;28;20491;-82
2021/09/04 06:10:13;;;;;;;12.87;10.93;;;;;;;15.34;99.71;155301.59;5021704;28;20926;-82
2021/09/04 06:12:58;;;;;;;12.43;11.07;;;;;;;15.63;98.34;155377.03;5037212;28;20574;-83
2021/09/04 06:15:44;;;;;;;13.27;11.90;;;;;;;15.69;97.02;155392.66;5037119;28;20426;-82
2021/09/04 06:18:29;;;;;;;13.00;10.70;;;;;;;15.87;96.74;155436.81;5036759;28;20457;-83
2021/09/04 06:21:14;;;;;;;12.00;10.80;;;;;;;16.00;94.71;155471.94;5036897;28;20553;-83
2021/09/04 06:24:01;;;;;;;12.00;10.90;;;;;;;16.19;94.90;155520.03;5021355;28;20956;-83
2021/09/04 06:26:47;;;;;;;12.80;11.07;;;;;;;16.44;94.53;155585.09;5037133;28;20446;-83
2021/09/04 06:29:33;;;;;;;12.33;11.03;;;;;;;16.70;93.21;155652.78;5036813;28;20443;-83
2021/09/04 06:32:18;;;;;;;12.20;10.90;;;;;;;16.92;91.76;155710.00;5036516;28;20503;-84
2021/09/04 06:35:04;;;;;;;11.70;10.47;;;;;;;17.17;90.31;155772.47;5036636;28;20938;-84
2021/09/04 06:37:49;;;;;;;11.70;10.50;;;;;;;17.36;89.04;155821.94;5036288;28;20466;-84
2021/09/04 06:40:35;;;;;;;12.63;11.10;;;;;;;17.53;87.00;155866.22;5034868;28;20411;-84
2021/09/04 06:43:22;;;;;;;11.70;10.47;;;;;;;17.86;85.94;155950.84;5033131;28;20549;-84
2021/09/04 06:45:57;;;;;;;17.40;10.70;;;;;;;18.11;83.10;156017.25;5013665;28;20559;-84
2021/09/04 06:48:42;;;;;;;12.47;10.17;;;;;;;18.28;83.29;156060.22;5016304;28;20498;-85
2021/09/04 06:51:28;;;;;;;12.60;11.23;;;;;;;18.49;83.19;156113.66;5014465;28;20910;-85
2021/09/04 06:54:13;;;;;;;11.50;10.20;;;;;;;18.71;82.43;156171.00;5035244;28;20451;-85
2021/09/04 06:57:00;;;;;;;13.63;11.33;;;;;;;18.94;82.00;156229.63;5035303;28;20583;-84
2021/09/04 06:59:47;;;;;;;11.63;10.43;;;;;;;19.04;79.24;156256.97;5035240;28;20791;-85
2021/09/04 07:02:32;;;;;;;11.67;9.53;;;;;;;19.36;80.07;156339.09;5035473;28;20440;-85
2021/09/04 07:05:18;;;;;;;11.63;10.30;;;;;;;19.75;77.53;156440.81;5034710;28;20818;-85
2021/09/04 07:08:03;;;;;;;12.40;10.30;;;;;;;19.89;75.98;156476.03;5036022;28;20447;-85
2021/09/04 07:10:48;;;;;;;10.60;9.50;;;;;;;20.04;75.92;156515.19;5020923;28;20451;-85
2021/09/04 07:13:34;;;;;;;11.00;10.00;;;;;;;20.17;74.84;156549.06;5035755;28;20459;-86
2021/09/04 07:16:21;;;;;;;11.50;10.00;;;;;;;20.28;74.89;156577.78;5035460;28;20436;-86
2021/09/04 07:19:06;;;;;;;11.07;9.90;;;;;;;20.42;73.82;156614.31;5016226;28;20942;-86
2021/09/04 07:21:52;;;;;;;12.03;10.13;;;;;;;20.62;73.50;156666.47;5022469;28;20463;-86
2021/09/04 07:24:37;;;;;;;11.00;9.93;;;;;;;20.85;71.43;156723.91;5035543;28;20447;-86
2021/09/04 07:27:22;;;;;;;12.10;10.37;;;;;;;21.02;70.89;156769.56;5035426;28;20451;-87
2021/09/04 07:30:09;;;;;;;10.43;9.43;;;;;;;21.34;70.72;156851.81;5035531;28;20462;-87
2021/09/04 07:32:56;;;;;;;11.20;10.10;;;;;;;21.54;68.29;156904.06;5035582;28;20917;-87
2021/09/04 07:35:41;;;;;;;10.57;9.50;;;;;;;21.78;67.50;156966.75;5035521;28;20459;-87
2021/09/04 07:38:26;;;;;;;10.10;9.10;;;;;;;21.62;67.68;156924.97;5039949;28;20450;-88
2021/09/04 07:41:12;;;;;;;9.30;8.40;;;;;;;21.84;66.01;156981.09;5055070;28;20554;-87
2021/09/04 07:43:57;;;;;;;9.23;8.33;;;;;;;21.97;64.67;157013.78;5036504;28;20447;-87
2021/09/04 07:46:43;;;;;;;9.43;8.53;;;;;;;22.18;63.34;157068.63;5034834;28;20459;-88
2021/09/04 07:49:29;;;;;;;10.37;9.47;;;;;;;22.26;63.02;157089.53;5035635;28;20447;-88
2021/09/04 07:52:15;;;;;;;9.17;8.27;;;;;;;22.51;63.98;157153.50;5035062;28;20438;-88
2021/09/04 07:55:00;;;;;;;10.97;8.47;;;;;;;22.75;63.30;157217.56;5035177;28;20435;-88
2021/09/04 07:57:45;;;;;;;9.93;8.93;;;;;;;22.64;61.14;157187.50;5031250;28;20466;-88
2021/09/04 08:00:51;;;;;;;9.67;8.73;;;;;;;22.70;60.83;157204.50;4954174;29;20491;-89
2021/09/04 08:03:36;;;;;;;8.60;7.70;;;;;;;22.88;60.69;157251.53;4970293;28;20457;-89
2021/09/04 08:06:23;;;;;;;8.17;7.43;;;;;;;22.98;60.63;157277.66;4961585;28;20512;-89
2021/09/04 08:09:11;;;;;;;8.70;7.87;;;;;;;23.17;59.40;157326.00;4941396;29;20449;-89
2021/09/04 08:11:57;;;;;;;8.43;7.63;;;;;;;23.31;59.42;157361.31;4939789;28;20504;-89
2021/09/04 08:14:44;;;;;;;8.90;7.90;;;;;;;23.40;59.30;157384.91;4968782;28;20528;-89
2021/09/04 08:17:29;;;;;;;8.10;7.30;;;;;;;23.76;58.72;157477.69;4959787;28;20846;-89
2021/09/04 08:20:18;;;;;;;8.90;7.70;;;;;;;23.70;59.32;157463.31;4972313;28;20559;-87
2021/09/04 08:23:07;;;;;;;8.40;7.60;;;;;;;24.08;55.50;157562.75;4971857;28;20529;-87
2021/09/04 08:25:52;;;;;;;9.70;8.67;;;;;;;24.25;53.10;157605.91;4972450;28;20526;-90
2021/09/04 08:28:38;;;;;;;9.00;8.20;;;;;;;23.64;54.16;157448.91;4956077;28;20457;-90
2021/09/04 08:31:23;;;;;;;8.87;7.97;;;;;;;23.54;56.60;157421.47;4974027;28;20445;-90
2021/09/04 08:34:08;;;;;;;8.70;7.57;;;;;;;23.71;56.00;157465.94;5033483;28;20463;-90
2021/09/04 08:36:54;;;;;;;9.60;7.93;;;;;;;23.83;54.95;157496.03;5033143;28;20455;-90
2021/09/04 08:39:32;;;;;;;10.10;7.77;;;;;;;23.54;57.89;157421.47;5029410;28;20452;-90
2021/09/04 08:42:17;;;;;;;8.97;8.07;;;;;;;23.78;55.78;157482.91;5038576;28;20443;-89
2021/09/04 08:45:02;;;;;;;9.10;8.20;;;;;;;24.01;55.04;157543.09;5053305;28;20410;-90
2021/09/04 08:47:48;;;;;;;7.80;7.10;;;;;;;24.05;54.98;157553.53;5043683;28;20462;-90
2021/09/04 08:50:35;;;;;;;7.87;7.07;;;;;;;24.19;54.27;157590.22;5018462;28;20427;-90
2021/09/04 08:53:21;;;;;;;8.03;7.33;;;;;;;24.11;55.60;157570.59;5020885;28;20945;-89
2021/09/04 08:56:10;;;;;;;8.17;7.47;;;;;;;24.58;54.55;157690.91;5013392;28;20408;-89
2021/09/04 08:58:55;;;;;;;7.80;7.13;;;;;;;24.37;53.86;157635.97;5011658;28;20468;-89
2021/09/04 09:01:44;;;;;;;8.03;7.33;;;;;;;24.16;53.63;157583.69;5012098;28;20428;-89
2021/09/04 09:04:31;;;;;;;8.30;6.73;;;;;;;24.33;54.12;157625.53;4996905;28;20551;-89
2021/09/04 09:07:20;;;;;;;8.17;7.43;;;;;;;24.13;54.25;157574.50;5010994;28;20500;-89
2021/09/04 09:10:06;;;;;;;8.77;7.87;;;;;;;23.83;54.97;157496.03;5012067;28;20424;-89
2021/09/04 09:12:53;;;;;;;8.30;7.60;;;;;;;23.50;56.27;157411.03;5012230;28;20436;-75
2021/09/04 09:15:39;;;;;;;8.73;7.93;;;;;;;23.38;56.39;157379.63;5013568;28;20621;-75
2021/09/04 09:18:27;;;;;;;11.10;8.40;;;;;;;23.21;57.46;157335.19;5020470;28;20927;-75
2021/09/04 09:21:15;;;;;;;8.43;7.63;;;;;;;22.87;58.29;157248.97;5033183;28;20484;-75
2021/09/04 09:24:08;;;;;;;8.40;7.33;;;;;;;23.03;59.14;157290.72;5032725;28;20582;-75
2021/09/04 09:26:56;;;;;;;8.37;7.40;;;;;;;23.32;58.23;157365.25;5017963;28;20969;-75
2021/09/04 09:29:47;;;;;;;7.27;6.67;;;;;;;23.13;57.46;157315.59;5033250;28;20513;-75
2021/09/04 09:32:33;;;;;;;8.33;7.10;;;;;;;22.62;59.47;157183.56;5033016;28;20442;-74
2021/09/04 09:35:18;;;;;;;8.07;7.37;;;;;;;22.85;58.30;157243.69;5033240;28;20464;-74
2021/09/04 09:38:05;;;;;;;7.27;6.60;;;;;;;22.82;58.67;157234.59;5027130;28;20521;-75
2021/09/04 09:40:52;;;;;;;6.67;6.07;;;;;;;22.70;58.16;157204.50;5035227;28;20823;-74
2021/09/04 09:43:37;;;;;;;6.00;5.43;;;;;;;22.66;59.32;157194.09;5037239;28;20443;-75
2021/09/04 09:46:24;;;;;;;7.03;5.73;;;;;;;22.72;57.64;157209.72;5035669;28;20810;-74
2021/09/04 09:49:10;;;;;;;6.93;4.97;;;;;;;22.72;56.34;157208.41;5035950;28;20841;-75
2021/09/04 09:52:00;;;;;;;6.30;5.70;;;;;;;22.66;54.74;157194.09;5035245;28;20467;-75
2021/09/04 09:54:45;;;;;;;5.73;5.23;;;;;;;22.57;54.98;157170.50;5017152;28;20448;-74
2021/09/04 09:57:32;;;;;;;5.90;5.30;;;;;;;22.49;56.02;157149.59;5012437;28;20544;-74
2021/09/04 10:00:18;;;;;;;5.53;5.03;;;;;;;22.62;54.28;157183.56;5015607;28;20425;-74
2021/09/04 10:03:05;;;;;;;6.60;4.83;;;;;;;22.68;56.72;157199.31;5000860;28;20439;-74
2021/09/04 10:05:51;;;;;;;6.10;5.50;;;;;;;22.93;55.53;157263.28;5015486;28;20805;-74
2021/09/04 10:08:36;;;;;;;5.43;4.93;;;;;;;22.90;53.08;157255.50;5016494;28;20449;-74
2021/09/04 10:11:22;;;;;;;5.50;4.87;;;;;;;22.75;51.79;157217.56;5015709;28;20775;-74
2021/09/04 10:14:07;;;;;;;5.40;4.90;;;;;;;22.52;50.80;157156.13;5016712;28;20998;-74
2021/09/04 10:16:56;;;;;;;6.53;4.50;;;;;;;22.69;54.48;157201.88;5016353;28;20413;-74
2021/09/04 10:19:43;;;;;;;5.53;5.03;;;;;;;22.51;55.02;157154.81;5001439;28;20440;-74
2021/09/04 10:22:28;;;;;;;6.00;5.40;;;;;;;22.45;56.83;157139.16;5016299;28;20915;-74
2021/09/04 10:25:15;;;;;;;4.80;4.30;;;;;;;22.62;54.90;157182.25;5021380;28;20462;-75
2021/09/04 10:28:01;;;;;;;6.20;4.97;;;;;;;22.45;53.66;157139.16;5036124;28;20478;-74
2021/09/04 10:30:53;;;;;;;5.60;5.10;;;;;;;22.63;52.78;157186.25;5035856;28;20942;-74
2021/09/04 10:33:39;;;;;;;5.40;4.90;;;;;;;22.59;52.55;157174.41;5036044;28;20807;-74
2021/09/04 10:36:26;;;;;;;5.23;4.50;;;;;;;22.68;51.61;157197.97;5035959;28;20494;-74
2021/09/04 10:39:11;;;;;;;5.70;4.10;;;;;;;22.57;50.61;157170.50;5036085;28;20996;-74
2021/09/04 10:41:57;;;;;;;4.10;3.70;;;;;;;22.57;48.78;157169.19;5035716;28;20761;-75
2021/09/04 10:44:44;;;;;;;4.90;4.13;;;;;;;22.70;50.24;157204.50;5036041;28;20451;-74
2021/09/04 10:47:29;;;;;;;5.07;4.47;;;;;;;22.73;49.16;157212.34;5035115;28;20458;-74
2021/09/04 10:50:16;;;;;;;4.87;4.37;;;;;;;22.91;51.08;157258.06;5035925;28;20424;-74
2021/09/04 10:53:05;;;;;;;6.40;4.00;;;;;;;22.94;51.21;157265.91;5034644;28;20790;-74
2021/09/04 10:55:50;;;;;;;5.10;3.87;;;;;;;22.97;49.73;157275.09;5035095;28;20431;-74
2021/09/04 10:58:42;;;;;;;5.13;4.40;;;;;;;22.88;48.10;157251.53;5035443;28;20486;-74
2021/09/04 11:01:28;;;;;;;5.73;5.10;;;;;;;22.89;48.14;157254.16;5035306;28;20431;-74
2021/09/04 11:04:14;;;;;;;5.93;4.07;;;;;;;22.82;45.86;157235.84;5020380;28;20451;-74
2021/09/04 11:07:19;;;;;;;4.30;3.70;;;;;;;22.60;47.79;157178.34;4954560;28;20463;-74
2021/09/04 11:10:24;;;;;;;5.70;5.13;;;;;;;22.58;48.49;157173.13;4955004;29;20419;-74
2021/09/04 11:13:35;;;;;;;4.97;4.57;;;;;;;22.44;48.53;157136.53;4954423;29;20443;-74
2021/09/04 11:16:33;;;;;;;5.07;4.37;;;;;;;22.66;48.77;157194.09;4954413;29;20558;-74
2021/09/04 11:19:24;;;;;;;4.57;4.13;;;;;;;22.68;46.60;157197.97;4954341;29;20574;-74
2021/09/04 11:22:12;;;;;;;5.20;4.27;;;;;;;22.54;46.10;157161.34;4940721;29;20498;-74
2021/09/04 11:24:58;;;;;;;4.63;4.13;;;;;;;22.72;47.51;157209.72;4954486;29;20440;-75
2021/09/04 11:27:46;;;;;;;4.83;4.30;;;;;;;22.72;47.90;157209.72;4954262;29;21149;-74
2021/09/04 11:30:31;;;;;;;4.57;4.10;;;;;;;22.69;48.39;157201.88;4953970;29;20431;-74
2021/09/04 11:33:17;;;;;;;5.30;4.70;;;;;;;22.89;48.59;157254.16;4954338;29;20454;-74
2021/09/04 11:36:03;;;;;;;5.57;4.90;;;;;;;22.78;48.26;157225.41;4954339;29;21023;-74
2021/09/04 11:38:48;;;;;;;4.80;4.40;;;;;;;22.79;49.53;157226.75;5004414;28;20471;-74
2021/09/04 11:41:44;;;;;;;5.70;5.20;;;;;;;22.85;49.10;157243.69;5032696;28;20452;-75
2021/09/04 11:44:31;;;;;;;5.50;5.00;;;;;;;22.71;49.59;157207.16;5034319;28;20934;-75
2021/09/04 11:47:17;;;;;;;6.30;4.70;;;;;;;22.82;51.25;157234.59;5034420;28;20454;-74
2021/09/04 11:50:05;;;;;;;4.70;4.30;;;;;;;22.93;50.28;157264.59;5033902;28;20427;-74
2021/09/04 11:52:51;;;;;;;5.23;4.73;;;;;;;22.77;49.09;157221.53;5034123;28;20440;-75
2021/09/04 11:55:36;;;;;;;5.53;5.03;;;;;;;22.59;50.06;157175.72;5034182;28;20514;-75
2021/09/04 11:58:21;;;;;;;4.97;4.57;;;;;;;22.68;50.53;157199.31;5034809;28;20550;-75
2021/09/04 12:01:08;;;;;;;5.00;4.60;;;;;;;22.71;48.99;157205.84;5001552;28;20535;-75
2021/09/04 12:03:55;;;;;;;5.37;4.87;;;;;;;22.57;48.21;157170.50;5034093;28;20969;-75
2021/09/04 12:06:47;;;;;;;4.90;4.40;;;;;;;22.62;49.76;157183.56;5034605;28;20463;-75
2021/09/04 12:09:34;;;;;;;4.50;4.10;;;;;;;22.81;49.33;157233.25;5031676;28;20783;-75
2021/09/04 12:12:19;;;;;;;6.17;4.77;;;;;;;22.82;47.32;157235.84;5027656;28;20455;-75
2021/09/04 12:15:06;;;;;;;5.00;4.50;;;;;;;22.93;47.62;157264.59;5023766;28;21031;-75
2021/09/04 12:17:56;;;;;;;5.07;4.20;;;;;;;23.03;49.13;157290.72;5024341;28;20416;-75
2021/09/04 12:20:43;;;;;;;4.80;4.20;;;;;;;22.81;44.73;157233.25;5022939;28;20459;-74
2021/09/04 12:23:29;;;;;;;5.97;4.63;;;;;;;22.75;47.67;157217.56;5022431;28;21006;-75
2021/09/04 12:26:23;;;;;;;4.43;4.03;;;;;;;22.84;45.93;157239.78;5089622;28;20538;-74
2021/09/04 12:29:09;;;;;;;4.50;4.07;;;;;;;22.93;48.68;157264.59;5089579;28;20809;-75
2021/09/04 12:31:59;;;;;;;5.07;4.57;;;;;;;23.18;46.82;157327.34;5087465;28;20525;-75
2021/09/04 12:34:57;;;;;;;4.83;4.33;;;;;;;22.88;46.51;157251.53;5088208;28;20467;-75
2021/09/04 12:37:42;;;;;;;5.40;4.87;;;;;;;22.72;48.23;157208.41;5089755;28;20784;-75
2021/09/04 12:40:28;;;;;;;4.90;4.50;;;;;;;22.65;47.93;157191.47;5089127;28;20486;-75
2021/09/04 12:43:14;;;;;;;4.63;4.23;;;;;;;22.63;48.59;157186.25;5089711;28;20980;-75